Time;durP1;ratioP1;P1;durP2;ratioP2;P2;SDS_P1;SDS_P2;PMS_P1;PMS_P2;Temp;Humidity;BMP_temperature;BMP_pressure;BME280_temperature;BME280_humidity;BME280_pressure;Samples;Min_cycle;Max_cycle;Signal;HPM_P1;HPM_P2
2022/08/28 00:00:19;;;;;;;8.98;2.80;;;17.10;99.90;;;;;;4917993;29;20388;-79
2022/08/28 00:02:46;;;;;;;5.35;1.77;;;17.10;99.90;;;;;;4900991;29;20044;-79
2022/08/28 00:05:12;;;;;;;7.82;2.20;;;17.10;99.90;;;;;;4901038;29;20052;-79
2022/08/28 00:07:38;;;;;;;8.65;2.42;;;17.10;99.90;;;;;;4900918;29;20142;-80
2022/08/28 00:10:07;;;;;;;7.50;2.00;;;17.10;99.90;;;;;;4901047;29;20160;-80
2022/08/28 00:12:35;;;;;;;8.68;1.83;;;17.20;99.90;;;;;;4900710;29;20099;-79
2022/08/28 00:15:01;;;;;;;8.75;1.98;;;17.10;99.90;;;;;;4900718;29;20063;-78
2022/08/28 00:17:27;;;;;;;12.90;3.95;;;17.10;99.90;;;;;;4900619;29;20151;-79
2022/08/28 00:19:52;;;;;;;4.60;1.77;;;17.10;99.90;;;;;;4900658;29;20070;-78
2022/08/28 00:22:18;;;;;;;8.15;1.70;;;17.10;99.90;;;;;;4917449;29;20048;-78
2022/08/28 00:24:44;;;;;;;7.10;1.77;;;17.10;99.90;;;;;;4900659;29;20104;-80
2022/08/28 00:29:54;;;;;;;7.72;1.92;;;17.10;99.90;;;;;;4900449;29;20051;-79
2022/08/28 00:32:22;;;;;;;9.95;1.70;;;17.00;99.90;;;;;;4900287;29;20052;-78
2022/08/28 00:34:48;;;;;;;7.95;2.05;;;17.00;99.90;;;;;;4900720;29;20062;-79
2022/08/28 00:37:14;;;;;;;6.63;1.55;;;17.00;99.90;;;;;;4900522;29;20099;-79
2022/08/28 00:39:40;;;;;;;5.50;1.60;;;17.10;99.90;;;;;;4900452;29;20052;-80
2022/08/28 00:42:06;;;;;;;9.52;1.63;;;17.00;99.90;;;;;;4900774;29;20048;-79
2022/08/28 00:44:32;;;;;;;10.30;1.63;;;17.00;99.90;;;;;;4916808;29;20072;-79
2022/08/28 00:46:58;;;;;;;8.50;1.92;;;17.00;99.90;;;;;;4916560;29;20072;-80
2022/08/28 00:49:34;;;;;;;8.30;2.00;;;17.00;99.90;;;;;;4899765;29;20123;-79
2022/08/28 00:52:04;;;;;;;6.38;1.65;;;17.00;99.90;;;;;;4899385;29;20060;-78
2022/08/28 00:54:33;;;;;;;5.45;1.60;;;16.90;99.90;;;;;;4916552;29;20044;-78
2022/08/28 00:57:02;;;;;;;7.03;2.55;;;16.90;99.90;;;;;;4916943;29;20496;-79
2022/08/28 00:59:28;;;;;;;8.85;2.20;;;17.00;99.90;;;;;;4902860;29;20099;-79
2022/08/28 01:01:56;;;;;;;6.63;1.75;;;16.90;99.90;;;;;;4903219;29;20488;-78
2022/08/28 01:04:24;;;;;;;8.20;1.80;;;16.90;99.90;;;;;;4902703;29;20052;-79
2022/08/28 01:06:52;;;;;;;6.07;1.75;;;16.90;99.90;;;;;;4902804;29;20048;-78
2022/08/28 01:09:25;;;;;;;7.93;1.70;;;16.90;99.90;;;;;;4902925;29;20048;-79
2022/08/28 01:11:55;;;;;;;6.70;1.67;;;16.90;99.90;;;;;;4903014;29;20052;-78
2022/08/28 01:14:22;;;;;;;6.50;1.67;;;16.90;99.90;;;;;;4902547;29;20412;-79
2022/08/28 01:16:54;;;;;;;9.38;1.75;;;16.90;99.90;;;;;;4902959;29;20048;-79
2022/08/28 01:19:34;;;;;;;9.50;1.50;;;16.90;99.90;;;;;;4902673;29;20096;-79
2022/08/28 01:22:38;;;;;;;8.65;1.95;;;16.90;99.90;;;;;;4903665;29;20411;-79
2022/08/28 01:25:12;;;;;;;6.47;1.92;;;16.90;99.90;;;;;;4899895;29;20127;-80
2022/08/28 01:27:40;;;;;;;10.80;1.60;;;16.90;99.90;;;;;;4902743;29;20472;-79
2022/08/28 01:30:11;;;;;;;4.57;1.30;;;16.90;99.90;;;;;;4902427;29;20047;-79
2022/08/28 01:32:46;;;;;;;5.65;1.95;;;16.80;99.90;;;;;;4902180;29;20056;-80
2022/08/28 01:35:19;;;;;;;8.77;1.80;;;16.80;99.90;;;;;;4902338;29;20075;-79
2022/08/28 01:37:45;;;;;;;7.80;1.90;;;16.80;99.90;;;;;;4902612;29;20040;-79
2022/08/28 01:40:13;;;;;;;6.05;1.52;;;16.80;99.90;;;;;;4902348;29;20051;-79
2022/08/28 01:42:41;;;;;;;9.18;1.30;;;16.80;99.90;;;;;;4902573;29;20399;-79
2022/08/28 01:45:09;;;;;;;6.72;1.67;;;16.80;99.90;;;;;;4882892;29;1086156;-79
2022/08/28 01:47:37;;;;;;;9.55;2.60;;;16.80;99.90;;;;;;4920219;29;20415;-79
2022/08/28 01:50:05;;;;;;;7.60;1.48;;;16.80;99.90;;;;;;4903334;29;20543;-79
2022/08/28 01:52:31;;;;;;;4.45;1.10;;;16.80;99.90;;;;;;4903576;29;20115;-79
2022/08/28 01:54:56;;;;;;;5.72;2.20;;;16.70;99.90;;;;;;4903624;29;20040;-79
2022/08/28 01:57:22;;;;;;;9.02;1.63;;;16.70;99.90;;;;;;4903333;29;20052;-81
2022/08/28 01:59:49;;;;;;;8.32;1.42;;;16.70;99.90;;;;;;4903483;29;20044;-80
2022/08/28 02:02:16;;;;;;;3.90;1.15;;;16.80;99.90;;;;;;4903182;29;20399;-79
2022/08/28 02:04:41;;;;;;;5.32;2.45;;;16.80;99.90;;;;;;4903495;29;20404;-78
2022/08/28 02:07:07;;;;;;;8.73;1.42;;;16.80;99.90;;;;;;4903515;29;20502;-79
2022/08/28 02:09:34;;;;;;;4.55;1.38;;;16.80;99.90;;;;;;4919880;29;20048;-78
2022/08/28 02:12:00;;;;;;;8.57;1.60;;;16.80;99.90;;;;;;4920034;29;20103;-80
2022/08/28 02:14:26;;;;;;;10.25;2.25;;;16.70;99.90;;;;;;4902917;29;20040;-79
2022/08/28 02:16:51;;;;;;;6.57;1.48;;;16.70;99.90;;;;;;4903390;29;20123;-79
2022/08/28 02:19:17;;;;;;;8.50;1.73;;;16.80;99.90;;;;;;4902920;29;20044;-79
2022/08/28 02:21:43;;;;;;;4.32;1.52;;;16.80;99.90;;;;;;4902964;29;20051;-79
2022/08/28 02:24:09;;;;;;;6.15;1.40;;;16.80;99.90;;;;;;4903243;29;20056;-79
2022/08/28 02:26:34;;;;;;;7.15;1.73;;;16.70;99.90;;;;;;4903364;29;20484;-79
2022/08/28 02:29:00;;;;;;;8.40;1.10;;;16.80;99.90;;;;;;4903045;29;20099;-79
2022/08/28 02:31:26;;;;;;;5.65;1.50;;;16.70;99.90;;;;;;4902541;29;20448;-80
2022/08/28 02:33:52;;;;;;;6.10;1.70;;;16.70;99.90;;;;;;4902942;29;20058;-79
2022/08/28 02:36:17;;;;;;;5.55;1.40;;;16.80;99.90;;;;;;4902698;29;20130;-79
2022/08/28 02:38:44;;;;;;;7.03;1.52;;;16.80;99.90;;;;;;4919491;29;20047;-79
2022/08/28 02:41:11;;;;;;;4.72;1.55;;;16.70;99.90;;;;;;4919361;29;20048;-79
2022/08/28 02:43:38;;;;;;;12.00;1.60;;;16.70;99.90;;;;;;4902698;29;20139;-80
2022/08/28 02:46:04;;;;;;;7.07;1.50;;;16.70;99.90;;;;;;4902262;29;20476;-80
2022/08/28 02:48:32;;;;;;;5.05;1.48;;;16.70;99.90;;;;;;4902241;29;20484;-79
2022/08/28 02:51:12;;;;;;;4.68;1.20;;;16.70;99.90;;;;;;4902404;29;20036;-79
2022/08/28 02:53:38;;;;;;;7.57;1.40;;;16.70;99.90;;;;;;4902545;29;20044;-80
2022/08/28 02:56:04;;;;;;;7.70;1.98;;;16.70;99.90;;;;;;4902048;29;20043;-80
2022/08/28 02:58:31;;;;;;;5.65;1.40;;;16.70;99.90;;;;;;4902040;29;20059;-79
2022/08/28 03:00:59;;;;;;;7.80;1.92;;;16.70;99.90;;;;;;4918865;29;20437;-80
2022/08/28 03:03:27;;;;;;;6.80;1.65;;;16.70;99.90;;;;;;4918933;29;20505;-79
2022/08/28 03:05:52;;;;;;;9.43;1.63;;;16.70;99.90;;;;;;4902002;29;20056;-78
2022/08/28 03:08:18;;;;;;;6.70;2.10;;;16.70;99.90;;;;;;4901782;29;20068;-79
2022/08/28 03:10:43;;;;;;;6.73;1.73;;;16.70;99.90;;;;;;4918842;29;20099;-80
2022/08/28 03:13:10;;;;;;;5.85;1.40;;;16.70;99.90;;;;;;4919294;29;20048;-80
2022/08/28 03:15:36;;;;;;;6.22;1.50;;;16.70;99.90;;;;;;4902004;29;20513;-78
2022/08/28 03:18:01;;;;;;;6.35;1.75;;;16.70;99.90;;;;;;4918756;29;20048;-80
2022/08/28 03:20:27;;;;;;;7.65;1.35;;;16.60;99.90;;;;;;4901317;29;20050;-79
2022/08/28 03:25:37;;;;;;;5.72;1.50;;;16.70;99.90;;;;;;4901545;29;20055;-79
2022/08/28 03:28:02;;;;;;;7.18;1.80;;;16.60;99.90;;;;;;4918447;29;20044;-79
2022/08/28 03:30:28;;;;;;;10.13;1.60;;;16.60;99.90;;;;;;4901547;29;20044;-80
2022/08/28 03:32:54;;;;;;;6.90;1.45;;;16.60;99.90;;;;;;4901416;29;20048;-80
2022/08/28 03:35:20;;;;;;;8.07;1.38;;;16.60;99.90;;;;;;4901559;29;20400;-80
2022/08/28 03:37:46;;;;;;;5.38;2.00;;;16.60;99.90;;;;;;4901134;29;20060;-79
2022/08/28 03:40:13;;;;;;;7.10;2.08;;;16.60;99.90;;;;;;4918199;29;20544;-80
2022/08/28 03:42:39;;;;;;;4.72;1.60;;;16.60;99.90;;;;;;4918033;29;20423;-80
2022/08/28 03:45:08;;;;;;;6.93;1.30;;;16.60;99.90;;;;;;4901121;29;20052;-79
2022/08/28 03:47:39;;;;;;;7.07;1.60;;;16.60;99.90;;;;;;4901273;29;20385;-79
2022/08/28 03:50:05;;;;;;;6.55;1.45;;;16.50;99.90;;;;;;4901328;29;20412;-79
2022/08/28 03:52:31;;;;;;;7.20;1.80;;;16.60;99.90;;;;;;4901015;29;20052;-79
2022/08/28 03:54:57;;;;;;;5.25;1.38;;;16.60;99.90;;;;;;4917987;29;20051;-78
2022/08/28 03:57:22;;;;;;;4.10;1.33;;;16.60;99.90;;;;;;4901087;29;20451;-78
2022/08/28 03:59:51;;;;;;;9.57;1.55;;;16.60;99.90;;;;;;4900970;29;20131;-80
2022/08/28 04:02:19;;;;;;;6.13;1.30;;;16.60;99.90;;;;;;4901071;29;20067;-79
2022/08/28 04:04:49;;;;;;;6.47;1.77;;;16.50;99.90;;;;;;4901055;29;20103;-78
2022/08/28 04:07:15;;;;;;;7.28;1.48;;;16.50;99.90;;;;;;4900823;29;20044;-78
2022/08/28 04:09:41;;;;;;;7.13;1.77;;;16.50;99.90;;;;;;4900872;29;20040;-79
2022/08/28 04:12:07;;;;;;;7.35;1.67;;;16.50;99.90;;;;;;4917760;29;20054;-79
2022/08/28 04:14:33;;;;;;;6.50;1.30;;;16.50;99.90;;;;;;4900996;29;20044;-81
2022/08/28 04:16:59;;;;;;;6.55;1.48;;;16.50;99.90;;;;;;4900845;29;20070;-79
2022/08/28 04:19:24;;;;;;;8.32;1.42;;;16.50;99.90;;;;;;4900880;29;20048;-79
2022/08/28 04:21:50;;;;;;;6.32;2.00;;;16.50;99.90;;;;;;4900844;29;20053;-79
2022/08/28 04:24:16;;;;;;;6.32;2.03;;;16.50;99.90;;;;;;4917679;29;20397;-80
2022/08/28 04:26:42;;;;;;;4.13;1.20;;;16.50;99.90;;;;;;4917606;29;20068;-79
2022/08/28 04:29:08;;;;;;;6.85;1.80;;;16.50;99.90;;;;;;4917351;29;20428;-78
2022/08/28 04:31:34;;;;;;;6.05;1.20;;;16.50;99.90;;;;;;4916739;29;20568;-78
2022/08/28 04:34:02;;;;;;;8.40;1.20;;;16.50;99.90;;;;;;4900284;29;20052;-79
2022/08/28 04:36:28;;;;;;;6.60;1.30;;;16.60;99.90;;;;;;4899571;29;20048;-79
2022/08/28 04:38:55;;;;;;;7.38;1.85;;;16.60;99.90;;;;;;4898984;29;20048;-79
2022/08/28 04:41:21;;;;;;;5.53;1.35;;;16.60;99.90;;;;;;4917281;29;20120;-79
2022/08/28 04:43:47;;;;;;;7.00;1.40;;;16.60;99.90;;;;;;4900402;29;20076;-81
2022/08/28 04:46:13;;;;;;;5.68;1.20;;;16.70;99.90;;;;;;4900014;29;20067;-80
2022/08/28 04:48:40;;;;;;;5.90;1.50;;;16.70;99.90;;;;;;4900452;29;20047;-78
2022/08/28 04:51:08;;;;;;;5.30;1.63;;;16.60;99.90;;;;;;4900349;29;20496;-79
2022/08/28 04:53:35;;;;;;;8.35;1.40;;;16.70;99.90;;;;;;4900101;29;20079;-78
2022/08/28 04:56:03;;;;;;;4.90;1.30;;;16.70;99.90;;;;;;4917099;29;20050;-80
2022/08/28 04:58:29;;;;;;;4.68;1.10;;;16.70;99.90;;;;;;4900088;29;20091;-79
2022/08/28 05:00:55;;;;;;;6.95;1.67;;;16.60;99.90;;;;;;4917332;29;20075;-79
2022/08/28 05:03:22;;;;;;;8.13;2.08;;;16.60;99.90;;;;;;4917193;29;20049;-79
2022/08/28 05:05:52;;;;;;;4.40;1.40;;;16.60;99.90;;;;;;4900001;29;20521;-79
2022/08/28 05:08:21;;;;;;;5.70;1.60;;;16.70;99.90;;;;;;4900056;29;20135;-79
2022/08/28 05:10:47;;;;;;;5.63;1.33;;;16.60;99.90;;;;;;4900031;29;20499;-78
2022/08/28 05:13:14;;;;;;;5.85;1.52;;;16.70;99.90;;;;;;4899918;29;20135;-79
2022/08/28 05:15:46;;;;;;;4.72;0.95;;;16.70;99.90;;;;;;4899980;29;20135;-79
2022/08/28 05:18:13;;;;;;;6.50;1.50;;;16.70;99.90;;;;;;4899903;29;20051;-79
2022/08/28 05:20:40;;;;;;;7.78;1.35;;;16.70;99.90;;;;;;4900149;29;20048;-79
2022/08/28 05:23:08;;;;;;;6.90;1.50;;;16.70;99.90;;;;;;4916986;29;20063;-80
2022/08/28 05:25:36;;;;;;;6.72;1.58;;;16.70;99.90;;;;;;4899802;29;20088;-79
2022/08/28 05:28:02;;;;;;;3.92;1.55;;;16.80;99.90;;;;;;4899855;29;20127;-85
2022/08/28 05:30:28;;;;;;;6.05;1.50;;;16.80;99.90;;;;;;4900047;29;20408;-80
2022/08/28 05:32:53;;;;;;;5.07;1.20;;;16.80;99.90;;;;;;4916957;29;20036;-79
2022/08/28 05:35:19;;;;;;;6.32;1.20;;;16.80;99.90;;;;;;4899855;29;20102;-79
2022/08/28 05:37:45;;;;;;;3.65;1.10;;;16.80;99.90;;;;;;4917006;29;20044;-79
2022/08/28 05:40:11;;;;;;;7.68;1.77;;;16.90;99.90;;;;;;4916639;29;20067;-81
2022/08/28 05:42:37;;;;;;;6.82;1.20;;;16.90;99.90;;;;;;4916959;29;20060;-80
2022/08/28 05:45:05;;;;;;;5.07;1.23;;;16.90;99.90;;;;;;4903108;29;20411;-80
2022/08/28 05:47:31;;;;;;;9.23;1.63;;;16.90;99.90;;;;;;4920364;29;20059;-80
2022/08/28 05:49:57;;;;;;;5.50;1.33;;;17.00;99.90;;;;;;4920108;29;20054;-80
2022/08/28 05:52:23;;;;;;;4.60;1.20;;;17.10;99.90;;;;;;4920146;29;20044;-80
2022/08/28 05:54:50;;;;;;;5.05;1.73;;;17.20;99.90;;;;;;4919893;29;20087;-79
2022/08/28 05:57:16;;;;;;;7.10;1.25;;;17.20;99.90;;;;;;4920004;29;20055;-79
2022/08/28 05:59:41;;;;;;;6.25;1.60;;;17.20;99.90;;;;;;4919846;29;20048;-80
2022/08/28 06:02:07;;;;;;;8.50;1.50;;;17.40;99.90;;;;;;4919974;29;20134;-80
2022/08/28 06:04:35;;;;;;;8.98;1.35;;;17.40;99.90;;;;;;4920017;29;20048;-80
2022/08/28 06:07:00;;;;;;;10.50;1.85;;;17.50;99.90;;;;;;4919918;29;20044;-79
2022/08/28 06:09:27;;;;;;;6.65;1.40;;;17.60;99.90;;;;;;4919691;29;20190;-80
2022/08/28 06:11:55;;;;;;;4.93;1.38;;;17.80;99.90;;;;;;4902865;29;20044;-80
2022/08/28 06:14:20;;;;;;;7.35;1.50;;;17.90;99.90;;;;;;4919837;29;20048;-79
2022/08/28 06:16:52;;;;;;;8.55;1.27;;;18.10;99.90;;;;;;4902735;29;20044;-80
2022/08/28 06:19:19;;;;;;;5.18;1.40;;;18.10;99.90;;;;;;4902738;29;20476;-80
2022/08/28 06:21:47;;;;;;;7.47;1.02;;;18.30;99.90;;;;;;4919468;29;20044;-80
2022/08/28 06:24:13;;;;;;;4.70;1.02;;;18.30;99.90;;;;;;4902480;29;20056;-82
2022/08/28 06:26:40;;;;;;;6.03;1.50;;;18.50;99.90;;;;;;4903021;29;20044;-79
2022/08/28 06:29:08;;;;;;;6.35;1.02;;;18.60;99.90;;;;;;4902378;29;20488;-82
2022/08/28 06:31:34;;;;;;;6.35;1.35;;;18.90;99.90;;;;;;4902318;29;20408;-78
2022/08/28 06:34:00;;;;;;;9.27;1.73;;;19.00;99.90;;;;;;4895095;29;20476;-80
2022/08/28 06:36:28;;;;;;;4.70;1.10;;;19.10;99.90;;;;;;4883353;29;20128;-79
2022/08/28 06:38:56;;;;;;;4.70;1.10;;;19.20;99.90;;;;;;4883595;29;20498;-83
2022/08/28 06:41:23;;;;;;;6.00;1.00;;;19.20;99.90;;;;;;4900323;29;20051;-80
2022/08/28 06:43:49;;;;;;;5.60;1.15;;;19.10;99.90;;;;;;4900093;29;20555;-78
2022/08/28 06:46:15;;;;;;;5.05;1.45;;;19.20;99.90;;;;;;4899927;29;20205;-79
2022/08/28 06:48:41;;;;;;;7.32;1.45;;;19.20;99.90;;;;;;4900255;29;20071;-78
2022/08/28 06:51:09;;;;;;;5.03;1.20;;;19.20;99.90;;;;;;4883364;29;20408;-80
2022/08/28 06:53:36;;;;;;;5.40;1.17;;;19.40;99.90;;;;;;4883362;29;20052;-79
2022/08/28 06:56:08;;;;;;;6.78;1.20;;;19.40;99.90;;;;;;4899340;29;20068;-79
2022/08/28 06:58:36;;;;;;;4.53;1.20;;;19.40;99.90;;;;;;4882948;29;20045;-78
2022/08/28 07:01:10;;;;;;;6.82;1.48;;;19.40;99.90;;;;;;4882938;29;20056;-78
2022/08/28 07:03:37;;;;;;;6.82;1.33;;;19.40;99.90;;;;;;4882696;29;20064;-80
2022/08/28 07:06:05;;;;;;;5.35;1.10;;;19.40;99.90;;;;;;4899913;29;20128;-81
2022/08/28 07:08:32;;;;;;;4.30;1.20;;;19.50;99.90;;;;;;4899564;29;20052;-78
2022/08/28 07:10:58;;;;;;;4.07;1.15;;;19.60;99.90;;;;;;4882894;29;20131;-79
2022/08/28 07:13:24;;;;;;;5.32;1.15;;;19.60;99.90;;;;;;4882661;29;20051;-79
2022/08/28 07:15:50;;;;;;;6.53;1.35;;;19.60;99.90;;;;;;4882533;29;20051;-78
2022/08/28 07:18:16;;;;;;;4.15;1.27;;;19.50;99.90;;;;;;4882911;29;20057;-79
2022/08/28 07:20:43;;;;;;;6.03;1.45;;;19.50;99.90;;;;;;4882599;29;20404;-78
2022/08/28 07:23:09;;;;;;;6.45;1.08;;;19.50;99.90;;;;;;4882729;29;20493;-78
2022/08/28 07:25:41;;;;;;;6.00;1.65;;;19.60;99.90;;;;;;4882684;29;20052;-80
2022/08/28 07:28:07;;;;;;;5.37;1.57;;;19.60;99.90;;;;;;4882518;29;20048;-78
2022/08/28 07:30:33;;;;;;;5.18;1.08;;;19.80;99.90;;;;;;4882170;29;20099;-81
2022/08/28 07:32:59;;;;;;;5.65;1.55;;;19.90;99.90;;;;;;4903989;29;20079;-78
2022/08/28 07:35:25;;;;;;;7.38;1.60;;;19.90;99.90;;;;;;4937249;29;20112;-78
2022/08/28 07:37:50;;;;;;;6.18;1.35;;;20.00;99.90;;;;;;4928097;29;20040;-78
2022/08/28 07:40:17;;;;;;;6.30;1.33;;;19.90;99.90;;;;;;4898438;29;20115;-78
2022/08/28 07:45:28;;;;;;;3.75;1.23;;;20.10;99.90;;;;;;4917720;29;20140;-78
2022/08/28 07:47:54;;;;;;;8.57;1.42;;;20.20;99.90;;;;;;4900901;29;20054;-78
2022/08/28 07:50:20;;;;;;;4.75;1.63;;;20.10;99.90;;;;;;4900936;29;20142;-78
2022/08/28 07:52:45;;;;;;;8.45;1.80;;;20.10;99.90;;;;;;4900704;29;20484;-78
2022/08/28 07:55:11;;;;;;;6.88;1.40;;;20.10;99.90;;;;;;4900675;29;20119;-80
2022/08/28 07:57:37;;;;;;;6.85;1.42;;;20.10;99.90;;;;;;4917825;29;20043;-78
2022/08/28 08:00:03;;;;;;;8.15;1.63;;;20.20;99.90;;;;;;4900846;29;20048;-80
2022/08/28 08:02:29;;;;;;;5.93;1.85;;;20.20;99.90;;;;;;4905390;29;20149;-79
2022/08/28 08:04:55;;;;;;;6.97;2.00;;;20.30;99.90;;;;;;4915044;29;20056;-79
2022/08/28 08:07:21;;;;;;;4.72;1.50;;;20.40;99.90;;;;;;4919351;29;20058;-78
2022/08/28 08:09:46;;;;;;;5.57;1.33;;;20.40;99.90;;;;;;4919310;29;20139;-80
2022/08/28 08:12:13;;;;;;;7.40;1.20;;;20.50;99.90;;;;;;4930646;29;20513;-79
2022/08/28 08:14:40;;;;;;;7.85;1.30;;;20.70;99.90;;;;;;4917562;29;20081;-79
2022/08/28 08:17:07;;;;;;;6.93;1.58;;;20.90;99.90;;;;;;4917161;29;20400;-77
2022/08/28 08:19:34;;;;;;;6.85;1.60;;;21.00;99.90;;;;;;4900502;29;20505;-78
2022/08/28 08:22:00;;;;;;;7.32;1.30;;;21.00;99.90;;;;;;4900345;29;20075;-79
2022/08/28 08:24:29;;;;;;;4.00;1.40;;;21.00;99.90;;;;;;4900296;29;20520;-79
2022/08/28 08:26:58;;;;;;;9.40;1.98;;;21.00;99.90;;;;;;4917412;29;20051;-79
2022/08/28 08:29:24;;;;;;;4.82;1.20;;;21.00;99.90;;;;;;4917456;29;20111;-78
2022/08/28 08:31:56;;;;;;;5.82;1.60;;;21.10;99.90;;;;;;4901382;29;20517;-78
2022/08/28 08:34:22;;;;;;;6.47;1.70;;;21.20;99.90;;;;;;4909445;29;20048;-78
2022/08/28 08:36:48;;;;;;;9.23;2.05;;;21.30;99.90;;;;;;4936148;29;20059;-79
2022/08/28 08:39:13;;;;;;;7.68;1.63;;;21.30;99.90;;;;;;4918885;29;20050;-78
2022/08/28 08:41:46;;;;;;;8.60;1.58;;;21.30;99.90;;;;;;4915712;29;20044;-78
2022/08/28 08:44:39;;;;;;;4.75;1.38;;;21.50;99.90;;;;;;4916895;29;20224;-78
2022/08/28 08:47:09;;;;;;;;;;;21.60;99.90;;;;;;4912580;29;20150;-78
2022/08/28 08:49:37;;;;;;;5.28;2.05;;;21.60;99.90;;;;;;4916135;29;19926;-78
2022/08/28 08:52:12;;;;;;;3.65;1.50;;;21.50;99.90;;;;;;4917146;29;20103;-79
2022/08/28 08:55:05;;;;;;;5.88;2.47;;;21.40;99.90;;;;;;4917056;29;20054;-78
2022/08/28 08:57:33;;;;;;;6.28;1.50;;;21.20;99.90;;;;;;4900243;29;20492;-78
2022/08/28 09:00:00;;;;;;;6.28;1.35;;;21.20;99.90;;;;;;4931605;29;20107;-77
2022/08/28 09:02:33;;;;;;;6.18;1.42;;;21.30;99.90;;;;;;4921979;29;20048;-78
2022/08/28 09:05:10;;;;;;;3.65;1.40;;;21.50;99.90;;;;;;4913450;29;20059;-78
2022/08/28 09:07:43;;;;;;;5.38;1.40;;;21.70;99.90;;;;;;4935809;29;20052;-79
2022/08/28 09:10:11;;;;;;;5.70;1.45;;;21.80;99.90;;;;;;4916677;29;20086;-79
2022/08/28 09:13:27;;;;;;;6.00;1.38;;;21.90;99.90;;;;;;4917582;29;20103;-79
2022/08/28 09:15:52;;;;;;;5.05;1.60;;;21.90;99.90;;;;;;4876577;29;20397;-80
2022/08/28 09:18:25;;;;;;;6.65;1.65;;;22.00;99.90;;;;;;4862222;29;20048;-79
2022/08/28 09:20:58;;;;;;;7.90;1.75;;;22.10;99.90;;;;;;4915451;29;20062;-81
2022/08/28 09:23:26;;;;;;;9.98;1.80;;;22.20;99.90;;;;;;4923524;29;20122;-80
2022/08/28 09:26:01;;;;;;;5.00;1.27;;;22.10;99.90;;;;;;4939561;29;20079;-80
2022/08/28 09:28:27;;;;;;;5.53;1.40;;;21.90;99.90;;;;;;4938806;29;20114;-79
2022/08/28 09:31:06;;;;;;;3.70;1.20;;;21.90;99.90;;;;;;4922273;29;20518;-82
2022/08/28 09:33:50;;;;;;;9.43;1.83;;;21.90;99.90;;;;;;4922452;23;20061;-78
2022/08/28 09:36:35;;;;;;;5.30;1.27;;;22.00;99.90;;;;;;4884801;29;20477;-80
2022/08/28 09:39:04;;;;;;;5.32;1.35;;;22.20;99.90;;;;;;4884511;29;20052;-80
2022/08/28 09:44:15;;;;;;;6.47;1.77;;;22.40;99.90;;;;;;4884500;29;20112;-82
2022/08/28 09:46:47;;;;;;;6.10;1.75;;;22.20;99.90;;;;;;4884638;29;20056;-82
2022/08/28 09:49:14;;;;;;;5.28;1.50;;;22.40;99.90;;;;;;4884318;29;20052;-80
2022/08/28 09:51:40;;;;;;;8.35;1.45;;;22.50;99.90;;;;;;4884507;29;20075;-81
2022/08/28 09:54:15;;;;;;;3.78;1.20;;;22.50;99.90;;;;;;4884535;29;20045;-80
2022/08/28 09:56:43;;;;;;;6.75;1.48;;;22.50;99.90;;;;;;4901516;29;20042;-78
2022/08/28 09:59:13;;;;;;;5.05;1.30;;;22.60;99.90;;;;;;4884240;29;20059;-80
2022/08/28 10:02:16;;;;;;;5.03;1.30;;;22.70;99.90;;;;;;4884662;29;20044;-80
2022/08/28 10:04:48;;;;;;;5.60;1.60;;;22.50;99.90;;;;;;4884079;29;20052;-79
2022/08/28 10:07:40;;;;;;;3.37;1.50;;;22.50;99.90;;;;;;4884013;29;20099;-79
2022/08/28 10:10:21;;;;;;;5.82;1.40;;;22.40;99.90;;;;;;4884548;29;20119;-79
2022/08/28 10:12:49;;;;;;;7.32;1.70;;;22.40;99.90;;;;;;4883939;29;20059;-79
2022/08/28 10:15:42;;;;;;;7.65;1.50;;;22.50;99.90;;;;;;4884002;29;20106;-79
2022/08/28 10:18:29;;;;;;;4.57;1.35;;;22.40;99.90;;;;;;4884122;29;20092;-80
2022/08/28 10:21:19;;;;;;;5.57;1.40;;;22.30;99.90;;;;;;4884103;29;20575;-79
2022/08/28 10:24:01;;;;;;;6.65;1.52;;;22.40;99.90;;;;;;4883835;29;20052;-80
2022/08/28 10:27:00;;;;;;;4.95;1.48;;;22.50;99.90;;;;;;4883715;29;20053;-80
2022/08/28 10:29:52;;;;;;;6.80;1.05;;;22.60;99.90;;;;;;4883086;29;20068;-79
2022/08/28 10:32:38;;;;;;;3.08;0.75;;;22.70;99.90;;;;;;4883439;29;20045;-79
2022/08/28 10:35:20;;;;;;;6.45;1.23;;;22.90;99.90;;;;;;4900587;29;20044;-79
2022/08/28 10:38:01;;;;;;;3.13;0.80;;;22.90;99.90;;;;;;4900396;29;20498;-80
2022/08/28 10:40:34;;;;;;;4.43;1.00;;;22.80;99.90;;;;;;4883374;29;20053;-82
2022/08/28 10:43:11;;;;;;;4.18;1.23;;;22.80;99.90;;;;;;4883308;29;20449;-80
2022/08/28 10:45:50;;;;;;;5.15;1.35;;;22.80;99.90;;;;;;4907522;23;20049;-83
2022/08/28 10:48:32;;;;;;;5.13;1.33;;;22.80;99.90;;;;;;4918074;29;20051;-79
2022/08/28 10:51:37;;;;;;;4.60;1.10;;;22.90;99.90;;;;;;4902213;29;20040;-79
2022/08/28 10:54:26;;;;;;;4.57;1.20;;;22.90;99.90;;;;;;4919073;29;20056;-79
2022/08/28 10:57:01;;;;;;;4.05;1.20;;;22.90;99.90;;;;;;4910949;29;20048;-79
2022/08/28 10:59:31;;;;;;;5.25;1.35;;;23.10;99.90;;;;;;4918995;29;20123;-79
2022/08/28 11:01:58;;;;;;;5.30;1.40;;;23.30;99.90;;;;;;4902037;29;20048;-80
2022/08/28 11:04:24;;;;;;;5.05;1.40;;;23.50;99.90;;;;;;4902020;29;20396;-79
2022/08/28 11:06:55;;;;;;;5.43;1.33;;;23.60;99.90;;;;;;4918667;29;20107;-79
2022/08/28 11:09:37;;;;;;;4.32;1.58;;;23.70;99.90;;;;;;4901938;29;20048;-80
2022/08/28 11:12:14;;;;;;;5.10;1.53;;;23.70;99.80;;;;;;4901821;29;20514;-83
2022/08/28 11:14:42;;;;;;;4.40;1.20;;;23.60;99.90;;;;;;4980351;23;20064;-83
2022/08/28 11:17:29;;;;;;;5.50;1.50;;;23.70;99.90;;;;;;4864535;29;20049;-84
2022/08/28 11:20:11;;;;;;;4.43;1.25;;;23.80;99.90;;;;;;4864007;29;20069;-84
2022/08/28 11:22:48;;;;;;;8.15;1.20;;;23.90;99.90;;;;;;4864388;29;20469;-83
2022/08/28 11:25:40;;;;;;;4.00;1.05;;;23.90;99.90;;;;;;4864080;29;20049;-81
2022/08/28 11:28:43;;;;;;;3.05;1.10;;;23.60;99.90;;;;;;4880682;29;20493;-85
2022/08/28 11:31:09;;;;;;;4.20;1.10;;;23.70;99.90;;;;;;4864197;29;20127;-84
2022/08/28 11:33:54;;;;;;;5.13;1.13;;;23.90;99.90;;;;;;4863964;29;20139;-83
2022/08/28 11:36:22;;;;;;;3.20;1.10;;;24.00;99.90;;;;;;4863873;29;20056;-85
2022/08/28 11:38:50;;;;;;;4.57;1.10;;;23.70;99.70;;;;;;4880462;29;20508;-83
2022/08/28 11:41:25;;;;;;;3.55;1.00;;;23.50;99.60;;;;;;4880553;29;20378;-88
2022/08/28 11:44:11;;;;;;;6.03;1.30;;;23.50;99.90;;;;;;4880649;29;20049;-82
2022/08/28 11:46:42;;;;;;;13.43;2.22;;;23.70;99.90;;;;;;4880570;29;20053;-84
2022/08/28 11:49:23;;;;;;;3.83;1.00;;;23.90;99.90;;;;;;4880664;29;20045;-84
2022/08/28 11:52:07;;;;;;;3.75;1.27;;;24.10;99.90;;;;;;4880566;29;20067;-84
2022/08/28 11:54:54;;;;;;;3.08;0.88;;;24.20;99.90;;;;;;4863726;29;20053;-84
2022/08/28 11:58:01;;;;;;;3.67;0.85;;;24.20;99.60;;;;;;4863806;29;20083;-83
2022/08/28 12:00:47;;;;;;;5.65;1.52;;;24.10;99.70;;;;;;4880113;29;20520;-84
2022/08/28 12:03:14;;;;;;;4.93;0.93;;;24.10;99.80;;;;;;4880187;29;20084;-84
2022/08/28 12:05:52;;;;;;;4.57;1.33;;;24.00;99.10;;;;;;4880346;29;20056;-83
2022/08/28 12:08:51;;;;;;;5.10;1.17;;;23.90;99.50;;;;;;4863385;29;20053;-84
2022/08/28 12:11:39;;;;;;;4.35;1.23;;;23.70;99.90;;;;;;4863563;29;20053;-84
2022/08/28 12:14:37;;;;;;;5.80;1.17;;;23.70;99.90;;;;;;4863362;29;20087;-82
2022/08/28 12:17:02;;;;;;;3.33;1.10;;;23.50;99.90;;;;;;4863130;29;20057;-84
2022/08/28 12:19:49;;;;;;;5.32;1.08;;;23.50;99.90;;;;;;4863304;29;20064;-83
2022/08/28 12:22:21;;;;;;;3.20;1.30;;;23.40;99.90;;;;;;4863464;29;20510;-84
2022/08/28 12:24:58;;;;;;;5.00;1.05;;;23.50;99.90;;;;;;4863470;29;20056;-82
2022/08/28 12:27:24;;;;;;;4.10;0.90;;;23.70;99.90;;;;;;4863395;29;20524;-83
2022/08/28 12:29:54;;;;;;;4.53;0.93;;;23.50;99.90;;;;;;4879924;29;20041;-83
2022/08/28 12:32:33;;;;;;;4.85;0.85;;;23.60;99.90;;;;;;4879692;29;20048;-84
2022/08/28 12:34:58;;;;;;;3.88;0.77;;;23.60;99.90;;;;;;4880007;29;20045;-83
2022/08/28 12:37:51;;;;;;;5.03;0.98;;;23.40;99.90;;;;;;4879925;29;20412;-85
2022/08/28 12:40:27;;;;;;;3.65;0.90;;;23.40;99.90;;;;;;4850393;29;20068;-85
2022/08/28 12:43:06;;;;;;;3.38;0.93;;;23.70;99.90;;;;;;4863012;29;20508;-83
2022/08/28 12:45:44;;;;;;;2.97;0.70;;;23.80;99.90;;;;;;4863325;29;20045;-83
2022/08/28 12:48:30;;;;;;;5.40;1.35;;;23.70;99.90;;;;;;4862932;29;20052;-86
2022/08/28 12:51:02;;;;;;;4.45;0.80;;;23.60;99.80;;;;;;4879564;29;20496;-83
2022/08/28 12:53:43;;;;;;;6.88;1.10;;;23.40;99.90;;;;;;4880762;29;20059;-84
2022/08/28 12:56:11;;;;;;;4.70;1.10;;;23.50;99.90;;;;;;4866722;29;20481;-83
2022/08/28 12:58:40;;;;;;;7.45;1.10;;;23.50;99.90;;;;;;4866578;29;20193;-83
2022/08/28 13:01:15;;;;;;;5.93;0.95;;;23.40;99.90;;;;;;4866700;29;20516;-83
2022/08/28 13:03:55;;;;;;;5.13;1.10;;;23.40;99.90;;;;;;4883410;29;20049;-82
2022/08/28 13:06:31;;;;;;;5.95;1.25;;;23.20;99.90;;;;;;4883396;29;20049;-82
2022/08/28 13:09:03;;;;;;;5.18;1.25;;;23.10;99.90;;;;;;4883468;29;20065;-83
2022/08/28 13:11:36;;;;;;;9.50;1.00;;;23.00;99.90;;;;;;4883392;29;20124;-83
2022/08/28 13:14:03;;;;;;;5.95;1.27;;;23.00;99.90;;;;;;4886029;29;20068;-83
2022/08/28 13:16:46;;;;;;;7.90;1.25;;;23.10;99.90;;;;;;4884933;29;20480;-83